EVVA

Ventspils International Airport

Ventspils, Latvia
METAR EVVA 182220Z AUTO 17005KT 9000 NSC 13/13 Q1014
Observed Flight Rules
Jun-18 @ 22:20 UTC (12 minutes ago) Visual Flight Rules
Wind Visibility Clouds
170° at 5 knots 8,996 meters
  • Clear skies
Temperatures Readings
Current 13°C / 55°F
Dewpoint 13°C / 55°F
Humidity 100%
Altimeter 29.94" Hg
Pressure 1014 hPa
Elevation 6
METAR EVVA 182220Z AUTO 17005KT 9000 NSC 13/13 Q1014
Observed Flight Rules
Jun-18 @ 22:20 UTC
(12 minutes ago)
VFR
Wind Visibility
170° at 5 knots 8,996 meters
Clouds
  • Clear skies
Temperature Dewpoint
13°C / 55°F 13°C / 55°F
Humidity Altimeter Pressure
100% 29.94" Hg 1014 hPa